• Join FlightAware (Why Join?)
  • Login
  • US Flag 
06:48AM EST


 

Airport Tracker/Info


-or-


 

Live Flight TrackerFlight Track Log ✈ N449ND ✈ 26-Feb-2014 ✈ KFPR - KFPR

Flight Track Log - Related Links

Times and Time Zones

All times are in EST time to prevent confusion due to time zone crossing. See the N449ND flight status page for this flight to view local times or setup timezone preferences in your user account.

Time Position Orientation Groundspeed Altitude Reporting Facility
EST Latitude Longitude Course Direction KTS MPH feet Rate Location/Type
09:19AM 27.4997 -80.3828 347° North 101 116 400  Level Miami Center
09:20AM 27.5011 -80.4061 274° West 94 108 3,000 600 Climbing Miami Center
09:21AM 27.5069 -80.4275 287° West 83 96 1,700 -360 Descending Miami Center
09:22AM 27.5128 -80.4489 287° West 83 96 2,300 600 Climbing Miami Center
09:23AM 27.5247 -80.4703 302° West 78 90 2,900 300 Climbing Miami Center
09:24AM 27.4975 -80.3726 347° North  Level Estimated
09:24AM 27.5400 -80.4450 56° Northeast 69 79 3,000  Level Miami Center
09:25AM 27.5014 -80.3737 347° North  Level FlightAware Approximate
09:25AM 27.5408 -80.4097 88° East 90 104 3,000  Level Miami Center
09:26AM 27.5353 -80.3769 101° East 107 123 3,100  Climbing Miami Center
09:27AM 27.5342 -80.3369 92° East 112 129 3,100  Level Miami Center
09:28AM 27.5289 -80.2994 99° East 112 129 3,100 -60 Level Miami Center
09:29AM 27.5256 -80.2642 96° East 117 135 3,000 -60 Descending Miami Center
09:30AM 27.5386 -80.2364 62° Northeast 111 128 3,000 -300 Level Miami Center
09:31AM 27.5642 -80.2136 38° Northeast 106 122 2,500 -600 Descending Miami Center
09:32AM 27.5867 -80.2356 319° Northwest 81 93 1,800 -420 Descending Miami Center
09:33AM 27.6006 -80.2642 299° West 100 115 1,700  Descending Miami Center
09:34AM 27.6106 -80.2900 294° West 106 122 1,800  Climbing Miami Center
09:35AM 27.6203 -80.3161 293° West 106 122 1,800 -300 Level Miami Center
09:36AM 27.6278 -80.3469 285° West 101 116 1,300 -480 Descending Miami Center
09:37AM 27.6378 -80.3731 293° West 96 110 900 -420 Descending Miami Center
09:38AM 27.6475 -80.3992 293° West 90 104 500 120 Descending Miami Center
09:40AM 27.6614 -80.4347 294° West 90 104 1,200 540 Climbing Miami Center
09:41AM 27.6628 -80.4606 273° West 90 104 1,800 360 Climbing Miami Center
09:42AM 27.6619 -80.4886 268° West 85 98 2,000 60 Climbing Miami Center
09:43AM 27.6614 -80.5144 269° West 90 104 2,000 240 Level Miami Center
09:44AM 27.6628 -80.5450 273° West 90 104 2,500 480 Climbing Miami Center
09:45AM 27.6619 -80.5683 268° West 85 98 3,000 300 Climbing Miami Center
09:46AM 27.6411 -80.5722 189° South 68 78 3,100  Climbing Miami Center
09:47AM 27.6161 -80.5667 169° South 94 108 3,000 -60 Descending Miami Center
09:48AM 27.5914 -80.5589 164° South 101 116 3,000  Level Miami Center
09:49AM 27.5711 -80.5372 137° Southeast 95 109 3,100  Climbing Miami Center
09:50AM 27.5739 -80.5022 85° East 96 110 3,000 -60 Descending Miami Center
09:51AM 27.5706 -80.4669 96° East 116 133 3,000  Level Miami Center
09:52AM 27.5675 -80.4317 96° East 122 140 3,000  Level Miami Center
09:53AM 27.5661 -80.3942 92° East 122 140 3,000 -180 Level Miami Center
09:54AM 27.5650 -80.3544 92° East 122 140 2,700 -480 Descending Miami Center
09:55AM 27.5597 -80.3167 99° East 122 140 2,100 -360 Descending Miami Center
09:56AM 27.5606 -80.2839 88° East 117 135 2,000 -60 Descending Miami Center
09:57AM 27.5592 -80.2489 93° East 117 135 2,000  Level Miami Center
09:58AM 27.5581 -80.2089 92° East 117 135 2,000  Level Miami Center
09:59AM 27.5528 -80.1736 100° East 117 135 2,000  Level Miami Center
10:00AM 27.5533 -80.1386 89° East 111 128 2,000  Level Miami Center
10:01AM 27.5458 -80.1078 105° East 111 128 2,000  Level Miami Center
10:02AM 27.5339 -80.0794 115° Southeast 106 122 2,100  Climbing Miami Center
10:03AM 27.5569 -80.0731 14° North 64 74 2,100 -60 Level Miami Center
10:04AM 27.5597 -80.0450 84° East 64 74 2,000  Descending Miami Center
10:05AM 27.5494 -80.1361 263° West 101 116 2,100  Climbing Miami Center
10:06AM 27.5636 -80.1528 314° West 86 99 2,100  Level Miami Center
10:07AM 27.5706 -80.1225 75° East 29 33 2,100 240 Level Miami Center
10:08AM 27.5672 -80.0872 96° East 84 97 2,600 420 Climbing Miami Center
10:09AM 27.5544 -80.0986 218° Southwest 54 62 3,000 240 Climbing Miami Center
10:10AM 27.5517 -80.1244 263° West 75 86 3,100  Climbing Miami Center
10:11AM 27.5594 -80.1481 290° West 83 96 3,100 -60 Level Miami Center
10:12AM 27.5728 -80.1181 63° Northeast 49 56 3,000 -60 Descending Miami Center
10:13AM 27.5650 -80.0872 106° East 87 100 3,000  Level Miami Center
10:14AM 27.5561 -80.1081 244° Southwest 38 44 3,100 -60 Climbing Miami Center
10:15AM 27.5514 -80.1361 259° West 90 104 2,900 -360 Descending Miami Center
10:16AM 27.5261 -80.1425 193° South 88 101 2,400 -480 Descending Miami Center
10:17AM 27.4969 -80.1508 194° South 100 115 2,000 -180 Descending Miami Center
10:18AM 27.4567 -80.1661 199° South 81 93 2,000 -120 Level Miami Center
10:19AM 27.4625 -80.1944 283° West 86 99 1,800 -240 Descending Miami Center
10:20AM 27.4700 -80.2228 287° West 97 112 1,600 -120 Descending Miami Center
10:21AM 27.4736 -80.2486 279° West 97 112 1,600  Level Miami Center
10:22AM 27.4792 -80.2769 282° West 97 112 1,600 -300 Level Miami Center
10:23AM 27.4850 -80.3050 283° West 86 99 1,100 -540 Descending Miami Center
10:24AM 27.4906 -80.3286 285° West 86 99 600 -540 Descending Miami Center